Time;durP1;ratioP1;P1;durP2;ratioP2;P2;SDS_P1;SDS_P2;PMS_P1;PMS_P2;Temp;Humidity;BMP_temperature;BMP_pressure;BME280_temperature;BME280_humidity;BME280_pressure;Samples;Min_cycle;Max_cycle;Signal;HPM_P1;HPM_P2
2022/11/13 00:02:11;;;;;;;8.32;7.57;;;10.60;99.90;;;;;;4229769;28;20047;-85
2022/11/13 00:04:31;;;;;;;6.80;6.00;;;10.40;99.90;;;;;;4232577;28;20043;-85
2022/11/13 00:06:50;;;;;;;4.40;4.30;;;10.30;99.90;;;;;;4229336;28;20055;-85
2022/11/13 00:09:18;;;;;;;4.60;4.50;;;10.10;99.90;;;;;;4225556;28;20062;-84
2022/11/13 00:11:37;;;;;;;4.70;4.50;;;10.10;99.90;;;;;;4230693;28;20076;-85
2022/11/13 00:13:57;;;;;;;4.07;3.97;;;9.90;99.90;;;;;;4232187;28;20111;-85
2022/11/13 00:16:19;;;;;;;4.38;4.07;;;9.70;99.90;;;;;;4235076;28;20050;-84
2022/11/13 00:18:39;;;;;;;4.28;4.07;;;9.70;99.90;;;;;;4233979;28;20270;-84
2022/11/13 00:21:08;;;;;;;6.50;6.10;;;9.80;99.90;;;;;;4235255;28;20050;-84
2022/11/13 00:23:31;;;;;;;4.63;4.50;;;9.80;99.90;;;;;;4232533;28;20081;-85
2022/11/13 00:25:51;;;;;;;;;;;9.70;99.90;;;;;;4229186;28;20081;-85
2022/11/13 00:28:11;;;;;;;4.93;4.70;;;9.70;99.90;;;;;;4229760;28;19961;-84
2022/11/13 00:30:30;;;;;;;3.58;3.38;;;9.70;99.90;;;;;;4232063;28;20284;-84
2022/11/13 00:32:50;;;;;;;4.18;4.05;;;9.80;99.90;;;;;;4229031;28;20039;-85
2022/11/13 00:35:09;;;;;;;5.53;5.18;;;9.80;99.90;;;;;;4228812;28;20162;-84
2022/11/13 00:37:29;;;;;;;4.43;4.05;;;9.80;99.90;;;;;;4232478;28;20038;-84
2022/11/13 00:39:49;;;;;;;4.25;4.05;;;9.70;99.90;;;;;;4217851;28;20047;-84
2022/11/13 00:42:08;;;;;;;4.30;4.20;;;9.50;99.90;;;;;;4227937;28;20043;-85
2022/11/13 00:44:29;;;;;;;4.32;4.22;;;9.30;99.90;;;;;;4226509;28;20445;-83
2022/11/13 00:46:48;;;;;;;4.13;3.92;;;9.30;99.90;;;;;;4230910;28;20085;-84
2022/11/13 00:49:08;;;;;;;3.80;3.70;;;9.30;99.90;;;;;;4232258;28;20051;-84
2022/11/13 00:51:28;;;;;;;3.40;3.30;;;9.40;99.90;;;;;;4229096;28;20043;-85
2022/11/13 00:53:48;;;;;;;3.90;3.70;;;9.40;99.90;;;;;;4226788;28;20038;-84
2022/11/13 00:56:08;;;;;;;3.40;3.30;;;9.30;99.90;;;;;;4234769;28;20129;-85
2022/11/13 00:58:28;;;;;;;3.33;3.15;;;9.20;99.90;;;;;;4235595;28;20273;-85
2022/11/13 01:00:49;;;;;;;3.60;3.40;;;9.20;99.90;;;;;;4231572;28;20051;-85
2022/11/13 01:03:09;;;;;;;3.15;2.88;;;9.20;99.90;;;;;;4234123;28;20045;-84
2022/11/13 01:05:28;;;;;;;3.47;3.38;;;9.20;99.90;;;;;;4226201;28;20058;-84
2022/11/13 01:07:48;;;;;;;3.10;2.90;;;9.20;99.90;;;;;;4224989;28;20035;-84
2022/11/13 01:10:08;;;;;;;3.17;3.08;;;9.20;99.90;;;;;;4226541;28;20085;-84
2022/11/13 01:12:28;;;;;;;3.60;3.40;;;9.10;99.90;;;;;;4230105;28;20042;-84
2022/11/13 01:14:47;;;;;;;3.47;3.38;;;9.00;99.90;;;;;;4232181;28;20058;-84
2022/11/13 01:17:07;;;;;;;3.58;3.38;;;9.00;99.90;;;;;;4228532;28;20106;-84
2022/11/13 01:19:26;;;;;;;4.32;4.13;;;8.90;99.90;;;;;;4232607;28;20414;-85
2022/11/13 01:21:46;;;;;;;3.38;3.17;;;8.80;99.90;;;;;;4227229;28;20086;-84
2022/11/13 01:24:06;;;;;;;4.32;4.22;;;8.80;99.90;;;;;;4230337;28;20067;-85
2022/11/13 01:26:28;;;;;;;4.05;3.85;;;8.60;99.90;;;;;;4231205;28;20087;-84
2022/11/13 01:28:48;;;;;;;3.75;3.65;;;8.50;99.90;;;;;;4234533;28;20047;-84
2022/11/13 01:31:12;;;;;;;3.60;3.40;;;8.50;99.90;;;;;;4220048;28;20055;-84
2022/11/13 01:33:31;;;;;;;4.10;4.00;;;8.50;99.90;;;;;;4229441;28;20078;-84
2022/11/13 01:35:51;;;;;;;3.58;3.33;;;8.50;99.90;;;;;;4229095;28;20098;-84
2022/11/13 01:38:11;;;;;;;3.53;3.30;;;8.50;99.90;;;;;;4229268;28;20354;-84
2022/11/13 01:40:31;;;;;;;4.10;3.20;;;8.50;99.90;;;;;;4229809;28;20046;-84
2022/11/13 01:42:50;;;;;;;3.17;3.00;;;8.50;99.90;;;;;;4226312;28;20034;-84
2022/11/13 01:46:02;;;;;;;3.30;3.30;;;8.40;99.90;;;;;;4224357;28;20086;-84
2022/11/13 01:48:24;;;;;;;3.10;3.10;;;8.20;99.90;;;;;;4227332;28;20035;-84
2022/11/13 01:50:44;;;;;;;4.13;3.83;;;8.20;99.90;;;;;;4228713;28;20088;-84
2022/11/13 01:53:04;;;;;;;3.70;3.38;;;8.20;99.90;;;;;;4227052;28;20039;-84
2022/11/13 01:55:25;;;;;;;3.08;2.97;;;8.10;99.90;;;;;;4229947;28;20046;-84
2022/11/13 01:57:45;;;;;;;4.43;4.22;;;8.10;99.90;;;;;;4222179;28;20137;-85
2022/11/13 02:00:08;;;;;;;4.22;3.97;;;7.90;99.90;;;;;;4225429;28;20074;-84
2022/11/13 02:02:27;;;;;;;;;;;7.60;99.90;;;;;;4229294;28;20046;-84
2022/11/13 02:04:47;;;;;;;3.90;3.80;;;7.60;99.90;;;;;;4229763;28;20230;-84
2022/11/13 02:07:10;;;;;;;4.05;3.95;;;7.70;99.90;;;;;;4230864;28;20034;-84
2022/11/13 02:09:35;;;;;;;;;;;7.70;99.90;;;;;;4229300;28;20047;-84
2022/11/13 02:11:55;;;;;;;4.22;3.95;;;7.70;99.90;;;;;;4216789;28;19923;-84
2022/11/13 02:14:17;;;;;;;4.20;4.00;;;7.60;99.90;;;;;;4228839;28;20071;-84
2022/11/13 02:16:38;;;;;;;4.03;3.92;;;7.60;99.90;;;;;;4217830;28;20044;-84
2022/11/13 02:18:59;;;;;;;4.10;3.92;;;7.80;99.90;;;;;;4225082;28;20107;-84
2022/11/13 02:21:31;;;;;;;3.63;3.42;;;7.80;99.90;;;;;;4231901;28;20066;-84
2022/11/13 02:24:00;;;;;;;3.60;3.50;;;7.80;99.90;;;;;;4226026;28;20073;-84
2022/11/13 02:26:24;;;;;;;4.70;4.50;;;7.70;99.90;;;;;;4226296;28;20043;-84
2022/11/13 02:28:44;;;;;;;6.65;4.38;;;7.60;99.90;;;;;;4225926;28;20054;-84
2022/11/13 02:31:12;;;;;;;4.95;4.75;;;7.60;99.90;;;;;;4227774;28;20231;-84
2022/11/13 02:33:32;;;;;;;3.80;3.60;;;7.60;99.90;;;;;;4232333;28;20122;-84
2022/11/13 02:35:52;;;;;;;3.97;3.90;;;7.60;99.90;;;;;;4236154;28;20055;-84
2022/11/13 02:38:12;;;;;;;4.32;4.03;;;7.60;99.90;;;;;;4221805;28;20112;-84
2022/11/13 02:40:33;;;;;;;3.70;3.60;;;7.60;99.90;;;;;;4234518;28;20050;-84
2022/11/13 02:42:52;;;;;;;4.80;4.70;;;7.40;99.90;;;;;;4229620;28;20089;-84
2022/11/13 02:45:12;;;;;;;4.75;4.65;;;7.20;99.90;;;;;;4225160;28;20388;-84
2022/11/13 02:47:32;;;;;;;4.95;4.75;;;7.10;99.90;;;;;;4223294;28;20366;-84
2022/11/13 02:49:51;;;;;;;4.70;4.60;;;7.00;99.90;;;;;;4230577;28;20062;-85
2022/11/13 02:52:11;;;;;;;5.70;5.43;;;6.80;99.90;;;;;;4229847;28;20039;-85
2022/11/13 02:54:31;;;;;;;4.85;4.53;;;6.80;99.90;;;;;;4226823;28;20082;-84
2022/11/13 02:56:51;;;;;;;4.32;4.07;;;6.80;99.90;;;;;;4225305;28;20054;-84
2022/11/13 02:59:10;;;;;;;4.57;4.38;;;6.70;99.90;;;;;;4224977;28;20398;-84
2022/11/13 03:01:30;;;;;;;5.20;4.72;;;6.70;99.90;;;;;;4229916;28;20054;-84
2022/11/13 03:03:50;;;;;;;3.72;3.60;;;6.70;99.90;;;;;;4235398;28;20484;-85
2022/11/13 03:06:18;;;;;;;5.45;5.20;;;6.70;99.90;;;;;;4236824;28;20380;-85
2022/11/13 03:08:37;;;;;;;4.97;4.88;;;6.70;99.90;;;;;;4229386;28;20231;-84
2022/11/13 03:10:58;;;;;;;4.82;4.63;;;6.70;99.90;;;;;;4230378;28;20054;-84
2022/11/13 03:13:17;;;;;;;3.55;3.45;;;6.60;99.90;;;;;;4217148;28;20255;-84
2022/11/13 03:15:37;;;;;;;4.30;4.10;;;6.60;99.90;;;;;;4229267;28;20054;-84
2022/11/13 03:17:56;;;;;;;3.53;3.42;;;6.80;99.90;;;;;;4234176;28;20058;-84
2022/11/13 03:20:16;;;;;;;3.80;3.70;;;6.90;99.90;;;;;;4227816;28;20081;-84
2022/11/13 03:22:36;;;;;;;4.20;4.10;;;6.90;99.90;;;;;;4219974;28;20396;-84
2022/11/13 03:24:56;;;;;;;4.43;4.13;;;6.80;99.90;;;;;;4234844;28;20050;-85
2022/11/13 03:27:16;;;;;;;4.35;4.18;;;6.80;99.90;;;;;;4231626;28;20374;-84
2022/11/13 03:29:35;;;;;;;3.63;3.53;;;6.80;99.90;;;;;;4231264;28;20061;-84
2022/11/13 03:31:55;;;;;;;2.60;2.47;;;6.80;99.90;;;;;;4233720;28;20104;-84
2022/11/13 03:34:14;;;;;;;3.85;3.75;;;6.70;99.90;;;;;;4231933;28;20299;-84
2022/11/13 03:36:34;;;;;;;3.88;3.65;;;6.70;99.90;;;;;;4230946;28;20082;-84
2022/11/13 03:38:54;;;;;;;3.72;3.42;;;6.60;99.90;;;;;;4228219;28;20066;-84
2022/11/13 03:41:14;;;;;;;4.45;4.22;;;6.60;99.90;;;;;;4234462;28;20133;-84
2022/11/13 03:43:33;;;;;;;4.18;4.05;;;6.60;99.90;;;;;;4233510;28;20114;-84
2022/11/13 03:45:53;;;;;;;4.55;4.40;;;6.60;99.90;;;;;;4229434;28;20081;-84
2022/11/13 03:48:14;;;;;;;4.40;4.20;;;6.70;99.90;;;;;;4232448;28;20051;-84
2022/11/13 03:50:33;;;;;;;5.88;5.47;;;6.70;99.90;;;;;;4228963;28;20047;-84
2022/11/13 03:52:53;;;;;;;6.05;5.70;;;6.60;99.90;;;;;;4229563;28;20073;-84
2022/11/13 03:55:13;;;;;;;5.22;5.00;;;6.50;99.90;;;;;;4231081;28;20055;-84
2022/11/13 03:57:33;;;;;;;5.38;5.18;;;6.30;99.90;;;;;;4229900;28;20066;-84
2022/11/13 03:59:53;;;;;;;4.97;4.78;;;6.30;99.90;;;;;;4224328;28;20047;-84
2022/11/13 04:02:12;;;;;;;5.38;5.13;;;6.30;99.90;;;;;;4216583;28;20054;-84
2022/11/13 04:04:32;;;;;;;4.28;4.18;;;6.30;99.90;;;;;;4230360;28;20366;-84
2022/11/13 04:06:52;;;;;;;5.40;5.20;;;6.30;99.90;;;;;;4233160;28;20080;-84
2022/11/13 04:09:12;;;;;;;6.30;5.88;;;6.20;99.90;;;;;;4232026;28;20046;-84
2022/11/13 04:11:32;;;;;;;5.60;5.50;;;6.10;99.90;;;;;;4230172;28;20062;-84
2022/11/13 04:13:52;;;;;;;5.75;5.35;;;6.10;99.90;;;;;;4234352;28;20119;-84
2022/11/13 04:16:11;;;;;;;4.60;4.50;;;6.10;99.90;;;;;;4232695;28;20059;-84
2022/11/13 04:18:31;;;;;;;4.97;4.88;;;6.10;99.90;;;;;;4231879;28;20043;-84
2022/11/13 04:20:51;;;;;;;5.18;5.07;;;6.10;99.90;;;;;;4218799;28;20055;-84
2022/11/13 04:23:13;;;;;;;5.55;5.45;;;6.20;99.90;;;;;;4234018;28;20328;-84
2022/11/13 04:25:33;;;;;;;4.40;4.20;;;6.20;99.90;;;;;;4236464;28;20082;-84
2022/11/13 04:27:52;;;;;;;5.10;4.68;;;6.10;99.90;;;;;;4223324;28;20047;-84
2022/11/13 04:30:13;;;;;;;3.65;3.45;;;6.00;99.90;;;;;;4218230;28;20422;-85
2022/11/13 04:32:33;;;;;;;5.03;4.78;;;6.00;99.90;;;;;;4224056;28;20081;-84
2022/11/13 04:34:53;;;;;;;5.28;4.95;;;6.00;99.90;;;;;;4229454;28;20098;-84
2022/11/13 04:37:12;;;;;;;4.97;4.70;;;6.10;99.90;;;;;;4231144;28;20065;-84
2022/11/13 04:39:32;;;;;;;4.25;4.15;;;6.10;99.90;;;;;;4231912;28;20051;-84
2022/11/13 04:44:30;;;;;;;5.45;5.25;;;6.10;99.90;;;;;;4231159;28;20043;-84
2022/11/13 04:46:49;;;;;;;6.22;5.82;;;6.20;99.90;;;;;;4235687;28;20090;-84
2022/11/13 04:49:09;;;;;;;4.15;4.05;;;6.20;99.90;;;;;;4223966;28;20369;-84
2022/11/13 04:51:29;;;;;;;4.85;4.53;;;6.10;99.90;;;;;;4229465;28;20292;-84
2022/11/13 04:53:49;;;;;;;4.25;4.15;;;6.20;99.90;;;;;;4227582;28;20047;-84
2022/11/13 04:56:09;;;;;;;4.55;4.45;;;6.20;99.90;;;;;;4227301;28;20046;-84
2022/11/13 04:58:28;;;;;;;5.25;5.05;;;6.20;99.90;;;;;;4226320;28;20108;-85
2022/11/13 05:00:49;;;;;;;4.75;4.55;;;6.20;99.90;;;;;;4232193;28;20092;-85
2022/11/13 05:03:08;;;;;;;4.55;4.45;;;6.20;99.90;;;;;;4233114;28;20043;-85
2022/11/13 05:05:28;;;;;;;4.28;4.18;;;6.30;99.90;;;;;;4226137;28;20051;-84
2022/11/13 05:07:48;;;;;;;4.97;4.60;;;6.30;99.90;;;;;;4234032;28;20081;-84
2022/11/13 05:10:08;;;;;;;3.75;3.55;;;6.40;99.90;;;;;;4224400;28;20081;-84
2022/11/13 05:12:28;;;;;;;4.43;4.22;;;6.40;99.90;;;;;;4213925;28;20053;-84
2022/11/13 05:14:47;;;;;;;4.80;4.60;;;6.40;99.90;;;;;;4226430;28;20047;-85
2022/11/13 05:17:09;;;;;;;5.25;5.10;;;6.50;99.90;;;;;;4220608;28;20381;-84
2022/11/13 05:19:29;;;;;;;4.70;4.60;;;6.60;99.90;;;;;;4231927;28;20069;-84
2022/11/13 05:21:49;;;;;;;4.65;4.55;;;6.60;99.90;;;;;;4232713;28;20044;-84
2022/11/13 05:24:10;;;;;;;5.20;4.90;;;6.70;99.90;;;;;;4229847;28;20063;-84
2022/11/13 05:26:31;;;;;;;6.68;6.15;;;6.70;99.90;;;;;;4232258;28;20093;-85
2022/11/13 05:28:51;;;;;;;5.85;5.70;;;6.60;99.90;;;;;;4231241;28;20085;-84
2022/11/13 05:31:13;;;;;;;4.35;4.20;;;6.50;99.90;;;;;;4228200;28;20145;-84
2022/11/13 05:33:35;;;;;;;5.32;5.00;;;6.60;99.90;;;;;;4233977;28;20081;-84
2022/11/13 05:36:01;;;;;;;8.98;5.22;;;6.60;99.90;;;;;;4233297;28;20251;-84
2022/11/13 05:38:21;;;;;;;4.70;4.35;;;6.70;99.90;;;;;;4230568;28;20039;-84
2022/11/13 05:40:41;;;;;;;5.57;5.18;;;6.70;99.90;;;;;;4227474;28;20081;-84
2022/11/13 05:43:00;;;;;;;5.15;5.05;;;6.80;99.90;;;;;;4226105;28;20100;-85
2022/11/13 05:45:20;;;;;;;4.60;4.40;;;6.90;99.90;;;;;;4229250;28;20223;-84
2022/11/13 05:47:40;;;;;;;4.78;4.68;;;6.70;99.90;;;;;;4227269;28;20039;-84
2022/11/13 05:50:00;;;;;;;4.75;4.53;;;6.70;99.90;;;;;;4225465;28;20270;-85
2022/11/13 05:52:19;;;;;;;5.03;4.78;;;6.70;99.90;;;;;;4218953;28;20050;-84
2022/11/13 05:54:39;;;;;;;4.97;4.88;;;6.60;99.90;;;;;;4230254;28;20043;-84
2022/11/13 05:56:59;;;;;;;5.55;5.45;;;6.50;99.90;;;;;;4218801;28;20078;-85
2022/11/13 05:59:18;;;;;;;5.75;5.55;;;6.50;99.90;;;;;;4220057;28;20079;-84
2022/11/13 06:01:39;;;;;;;5.25;4.95;;;6.50;99.90;;;;;;4223478;28;20090;-84
2022/11/13 06:04:00;;;;;;;4.22;4.05;;;6.60;99.90;;;;;;4232106;28;20047;-84
2022/11/13 06:06:21;;;;;;;5.85;5.57;;;6.70;99.90;;;;;;4223357;28;20055;-84
2022/11/13 06:08:42;;;;;;;6.03;5.50;;;6.60;99.90;;;;;;4227343;28;20066;-84
2022/11/13 06:11:05;;;;;;;5.22;5.03;;;6.60;99.90;;;;;;4228230;28;20251;-84
2022/11/13 06:13:25;;;;;;;5.88;5.47;;;6.70;99.90;;;;;;4231210;28;20034;-85
2022/11/13 06:15:45;;;;;;;5.38;5.18;;;6.70;99.90;;;;;;4228933;28;20058;-84
2022/11/13 06:18:05;;;;;;;3.97;3.88;;;6.80;99.90;;;;;;4214071;28;20385;-84
2022/11/13 06:20:25;;;;;;;5.15;5.05;;;6.80;99.90;;;;;;4229237;28;20135;-84
2022/11/13 06:22:44;;;;;;;4.72;3.72;;;6.90;99.90;;;;;;4229485;28;20051;-85
2022/11/13 06:25:05;;;;;;;5.93;5.05;;;7.00;99.90;;;;;;4220807;28;20058;-85
2022/11/13 06:27:26;;;;;;;4.53;4.32;;;7.00;99.90;;;;;;4227434;28;20047;-84
2022/11/13 06:29:46;;;;;;;5.00;4.80;;;7.10;99.90;;;;;;4229804;28;20051;-85
2022/11/13 06:32:05;;;;;;;5.95;5.85;;;7.00;99.90;;;;;;4229478;28;20088;-85
2022/11/13 06:34:25;;;;;;;6.25;5.82;;;7.00;99.90;;;;;;4231349;28;20381;-85
2022/11/13 06:36:44;;;;;;;5.15;4.88;;;6.90;99.90;;;;;;4227933;28;20058;-85
2022/11/13 06:39:06;;;;;;;6.60;6.30;;;6.80;99.90;;;;;;4230245;28;20109;-84
2022/11/13 06:41:30;;;;;;;120.28;13.32;;;6.70;99.90;;;;;;4228633;28;20389;-86
2022/11/13 06:43:50;;;;;;;5.38;5.07;;;6.70;99.90;;;;;;4228754;28;20082;-84
2022/11/13 06:46:22;;;;;;;6.28;5.85;;;6.60;99.90;;;;;;4217454;28;20052;-84
2022/11/13 06:48:42;;;;;;;9.40;8.85;;;6.60;99.90;;;;;;4233356;28;20112;-84
2022/11/13 06:51:04;;;;;;;6.80;6.60;;;6.50;99.90;;;;;;4220064;28;20434;-84
2022/11/13 06:53:24;;;;;;;5.65;5.45;;;6.50;99.90;;;;;;4225633;28;20337;-84
2022/11/13 06:55:48;;;;;;;43.28;7.80;;;6.50;99.90;;;;;;4223723;28;20121;-85
2022/11/13 06:58:07;;;;;;;5.03;4.82;;;6.50;99.90;;;;;;4230447;28;20054;-84
2022/11/13 07:00:27;;;;;;;5.03;4.90;;;6.60;99.90;;;;;;4225364;28;20051;-85
2022/11/13 07:02:52;;;;;;;5.78;5.32;;;6.60;99.90;;;;;;4229805;28;20117;-84
2022/11/13 07:05:13;;;;;;;5.53;5.22;;;6.70;99.90;;;;;;4231867;28;20051;-85
2022/11/13 07:07:32;;;;;;;5.03;4.82;;;6.80;99.90;;;;;;4229229;28;20069;-84
2022/11/13 07:09:52;;;;;;;5.95;5.53;;;6.80;99.90;;;;;;4232580;28;20239;-84
2022/11/13 07:12:12;;;;;;;5.32;5.03;;;6.90;99.90;;;;;;4231808;28;20227;-85
2022/11/13 07:14:31;;;;;;;7.57;7.32;;;7.00;99.90;;;;;;4225157;28;20062;-84
2022/11/13 07:16:51;;;;;;;15.40;14.20;;;7.10;99.90;;;;;;4228212;28;20051;-84
2022/11/13 07:19:29;;;;;;;11.02;10.38;;;7.20;99.90;;;;;;4231988;28;20381;-85
2022/11/13 07:21:49;;;;;;;9.98;9.50;;;7.20;99.90;;;;;;4230337;28;20119;-85
2022/11/13 07:24:08;;;;;;;9.70;9.05;;;7.10;99.90;;;;;;4231326;28;20243;-84
2022/11/13 07:26:36;;;;;;;8.13;7.40;;;7.00;99.90;;;;;;4227816;28;20082;-84
2022/11/13 07:28:55;;;;;;;10.27;9.05;;;7.00;99.90;;;;;;4219302;28;20059;-85
2022/11/13 07:31:16;;;;;;;8.88;8.20;;;7.10;99.90;;;;;;4234555;28;20050;-85
2022/11/13 07:33:36;;;;;;;11.32;10.52;;;7.20;99.90;;;;;;4227263;28;20051;-85
2022/11/13 07:35:57;;;;;;;12.80;11.85;;;7.30;99.90;;;;;;4227633;28;20094;-85
2022/11/13 07:38:17;;;;;;;12.85;11.82;;;7.40;99.90;;;;;;4228235;28;20054;-85
2022/11/13 07:40:36;;;;;;;5.38;5.13;;;7.60;99.90;;;;;;4234791;28;20107;-85
2022/11/13 07:42:58;;;;;;;41.10;31.92;;;7.60;99.90;;;;;;4227536;28;20082;-84
2022/11/13 07:45:18;;;;;;;7.90;7.38;;;7.70;99.90;;;;;;4225606;28;20043;-84
2022/11/13 07:47:38;;;;;;;8.02;7.70;;;7.70;99.90;;;;;;4233541;28;20070;-84
2022/11/13 07:49:57;;;;;;;5.95;5.65;;;7.80;99.90;;;;;;4233663;28;20047;-84
2022/11/13 07:52:29;;;;;;;8.23;6.45;;;7.80;99.90;;;;;;4232293;28;20266;-84
2022/11/13 07:54:48;;;;;;;8.02;6.07;;;7.70;99.90;;;;;;4230273;28;20047;-84
2022/11/13 07:57:08;;;;;;;12.18;10.43;;;7.80;99.90;;;;;;4227931;28;20038;-84
2022/11/13 07:59:27;;;;;;;7.85;7.10;;;7.80;99.90;;;;;;4231787;28;20062;-84
2022/11/13 08:01:47;;;;;;;11.20;10.80;;;7.90;99.90;;;;;;4235603;28;20209;-84
2022/11/13 08:04:07;;;;;;;9.00;8.38;;;8.00;99.90;;;;;;4227640;28;20062;-84
2022/11/13 08:06:27;;;;;;;7.30;7.10;;;8.00;99.90;;;;;;4224471;28;20086;-84
2022/11/13 08:08:48;;;;;;;8.38;7.90;;;8.10;99.90;;;;;;4231942;28;20050;-84
2022/11/13 08:11:08;;;;;;;8.55;8.25;;;8.10;99.90;;;;;;4218881;28;20051;-84
2022/11/13 08:13:28;;;;;;;7.70;7.40;;;8.30;99.90;;;;;;4232984;28;20050;-84
2022/11/13 08:15:48;;;;;;;6.28;6.07;;;8.30;99.90;;;;;;4232707;28;20250;-84
2022/11/13 08:18:08;;;;;;;6.53;5.82;;;8.50;99.90;;;;;;4229653;28;20039;-84
2022/11/13 08:20:29;;;;;;;9.02;8.55;;;8.50;99.90;;;;;;4219437;28;20067;-84
2022/11/13 08:22:49;;;;;;;5.38;5.22;;;8.60;99.90;;;;;;4226708;28;20039;-84
2022/11/13 08:25:09;;;;;;;4.65;4.35;;;8.70;99.90;;;;;;4232886;28;20266;-84
2022/11/13 08:27:28;;;;;;;5.03;4.88;;;8.70;99.90;;;;;;4233273;28;20042;-84
2022/11/13 08:29:50;;;;;;;6.07;5.65;;;8.60;99.90;;;;;;4227313;28;20058;-84
2022/11/13 08:32:14;;;;;;;5.88;5.00;;;8.70;99.90;;;;;;4229852;28;20082;-84
2022/11/13 08:34:36;;;;;;;4.90;4.50;;;8.60;99.90;;;;;;4227874;28;20042;-85
2022/11/13 08:36:55;;;;;;;6.13;5.82;;;8.70;99.90;;;;;;4226188;28;20050;-84
2022/11/13 08:39:16;;;;;;;6.78;6.57;;;8.70;99.90;;;;;;4223351;28;20431;-83
2022/11/13 08:41:35;;;;;;;8.32;7.82;;;8.80;99.90;;;;;;4227310;28;20397;-84
2022/11/13 08:43:55;;;;;;;7.70;7.30;;;8.90;99.90;;;;;;4227459;28;20389;-84
2022/11/13 08:46:15;;;;;;;7.60;7.30;;;9.00;99.90;;;;;;4214044;28;20278;-84
2022/11/13 08:48:35;;;;;;;7.25;6.80;;;9.10;99.90;;;;;;4230276;28;20294;-84
2022/11/13 08:50:56;;;;;;;7.45;7.25;;;9.10;99.90;;;;;;4233462;28;20061;-85
2022/11/13 08:53:16;;;;;;;16.17;14.82;;;9.20;99.90;;;;;;4231432;28;20103;-85
2022/11/13 08:55:35;;;;;;;14.27;13.13;;;9.20;99.90;;;;;;4215698;28;20243;-83
2022/11/13 08:58:00;;;;;;;11.15;10.50;;;9.10;99.90;;;;;;4232876;28;20055;-84
2022/11/13 09:00:20;;;;;;;8.27;7.63;;;9.10;99.90;;;;;;4229207;28;20094;-84
2022/11/13 09:02:40;;;;;;;8.75;8.32;;;9.10;99.90;;;;;;4228833;28;20042;-85
2022/11/13 09:05:00;;;;;;;12.48;11.68;;;9.10;99.90;;;;;;4232666;28;20053;-84
2022/11/13 09:07:20;;;;;;;8.55;8.07;;;9.10;99.90;;;;;;4232178;28;20046;-84
2022/11/13 09:09:46;;;;;;;9.05;8.75;;;9.10;99.90;;;;;;4231089;28;20054;-84
2022/11/13 09:12:06;;;;;;;8.38;7.85;;;9.00;99.90;;;;;;4211823;28;20398;-84
2022/11/13 09:14:27;;;;;;;8.27;7.70;;;9.00;99.90;;;;;;4232234;28;20066;-84
2022/11/13 09:16:46;;;;;;;9.20;8.73;;;9.00;99.90;;;;;;4232767;28;20055;-85
2022/11/13 09:19:06;;;;;;;8.80;8.10;;;9.00;99.90;;;;;;4229448;28;20111;-84
2022/11/13 09:21:26;;;;;;;9.30;8.95;;;9.00;99.90;;;;;;4233113;28;20107;-84
2022/11/13 09:23:45;;;;;;;8.70;7.95;;;9.10;99.90;;;;;;4236113;28;20067;-84
2022/11/13 09:26:05;;;;;;;10.50;9.70;;;9.20;99.90;;;;;;4226799;28;20058;-84
2022/11/13 09:28:25;;;;;;;11.98;11.20;;;9.20;99.90;;;;;;4229155;28;20395;-84
2022/11/13 09:30:45;;;;;;;8.77;8.32;;;9.20;99.90;;;;;;4228064;28;20043;-84
2022/11/13 09:33:06;;;;;;;6.38;6.18;;;9.30;99.90;;;;;;4226238;28;20154;-84
2022/11/13 09:35:33;;;;;;;7.15;6.60;;;9.50;99.90;;;;;;4225774;28;20073;-85
2022/11/13 09:37:53;;;;;;;6.72;6.50;;;9.70;99.90;;;;;;4233149;28;20046;-86
2022/11/13 09:40:24;;;;;;;5.65;5.50;;;9.90;99.90;;;;;;4233619;28;20050;-85
2022/11/13 09:42:44;;;;;;;5.78;5.68;;;10.10;99.90;;;;;;4229991;28;20445;-84
2022/11/13 09:45:11;;;;;;;5.40;5.30;;;10.20;99.90;;;;;;4231439;28;20053;-84
2022/11/13 09:47:36;;;;;;;4.05;3.95;;;10.30;99.90;;;;;;4231457;28;20054;-84
2022/11/13 09:50:14;;;;;;;5.47;5.28;;;10.40;99.90;;;;;;4216786;28;20047;-85
2022/11/13 09:52:41;;;;;;;4.85;4.75;;;10.60;99.90;;;;;;4228379;28;20298;-86
2022/11/13 09:55:03;;;;;;;9.80;9.18;;;10.60;99.90;;;;;;4223473;28;20058;-85
2022/11/13 09:57:30;;;;;;;4.80;4.70;;;10.70;99.90;;;;;;4231371;28;20039;-85
2022/11/13 10:00:01;;;;;;;4.28;4.18;;;10.70;99.90;;;;;;4231046;28;20074;-85
2022/11/13 10:02:24;;;;;;;4.60;4.50;;;10.80;99.90;;;;;;4222608;28;20255;-86
2022/11/13 10:05:01;;;;;;;10.40;9.57;;;11.00;99.90;;;;;;4229759;28;20042;-85
2022/11/13 10:07:48;;;;;;;9.55;8.93;;;11.10;99.90;;;;;;4230957;28;20046;-85
2022/11/13 10:10:39;;;;;;;12.73;11.52;;;10.90;99.90;;;;;;4228854;28;20042;-86
2022/11/13 10:12:59;;;;;;;14.68;13.55;;;10.80;99.90;;;;;;4236751;28;20057;-84
2022/11/13 10:15:20;;;;;;;14.95;13.85;;;10.50;99.90;;;;;;4228430;28;20054;-84
2022/11/13 10:17:54;;;;;;;17.55;16.15;;;10.40;99.90;;;;;;4234781;28;20050;-85
2022/11/13 10:20:30;;;;;;;19.63;17.85;;;10.50;99.90;;;;;;4226807;28;20051;-84
2022/11/13 10:22:55;;;;;;;16.05;14.85;;;10.40;99.90;;;;;;4226082;28;20035;-84
2022/11/13 10:25:20;;;;;;;14.57;13.20;;;10.40;99.90;;;;;;4226613;28;20085;-83
2022/11/13 10:27:40;;;;;;;16.40;15.10;;;10.40;99.90;;;;;;4230348;28;20054;-83
2022/11/13 10:30:02;;;;;;;17.45;15.73;;;10.50;99.90;;;;;;4233784;28;20065;-83
2022/11/13 10:32:29;;;;;;;14.25;13.07;;;10.50;99.90;;;;;;4231498;28;20050;-83
2022/11/13 10:35:12;;;;;;;19.23;17.48;;;10.60;99.90;;;;;;4229923;28;20040;-82
2022/11/13 10:37:41;;;;;;;8.93;8.60;;;10.70;99.90;;;;;;4200596;28;20078;-83
2022/11/13 10:40:00;;;;;;;8.73;8.32;;;10.90;99.90;;;;;;4217354;28;20051;-83
2022/11/13 10:42:28;;;;;;;8.63;8.32;;;10.90;99.90;;;;;;4230521;28;20085;-83
2022/11/13 10:44:57;;;;;;;6.05;5.88;;;11.00;99.90;;;;;;4231682;28;20066;-83
2022/11/13 10:47:19;;;;;;;9.43;9.13;;;11.10;99.90;;;;;;4227049;28;20070;-83
2022/11/13 10:50:20;;;;;;;12.43;11.52;;;11.30;99.90;;;;;;4219861;28;20058;-83
2022/11/13 10:52:46;;;;;;;10.10;9.40;;;11.40;99.90;;;;;;4226950;28;20292;-84
2022/11/13 10:55:27;;;;;;;12.32;11.63;;;11.40;99.90;;;;;;4230885;28;20086;-83
2022/11/13 10:57:58;;;;;;;64.65;56.55;;;11.40;99.90;;;;;;4228470;28;20373;-83
2022/11/13 11:00:33;;;;;;;26.63;24.45;;;11.40;99.90;;;;;;4232555;28;20051;-83
2022/11/13 11:02:53;;;;;;;29.38;12.13;;;11.40;99.90;;;;;;4229609;28;20085;-83
2022/11/13 11:05:18;;;;;;;10.18;9.68;;;11.40;99.90;;;;;;4212740;28;20123;-83
2022/11/13 11:07:39;;;;;;;13.18;12.35;;;11.30;99.90;;;;;;4225836;28;20051;-83
2022/11/13 11:10:00;;;;;;;8.33;8.03;;;11.30;99.90;;;;;;4227619;28;20254;-84
2022/11/13 11:12:22;;;;;;;8.23;7.80;;;11.30;99.90;;;;;;4226117;28;20062;-83
2022/11/13 11:14:56;;;;;;;6.63;6.32;;;11.30;99.90;;;;;;4227902;28;20251;-83
2022/11/13 11:17:18;;;;;;;5.80;5.57;;;11.30;99.90;;;;;;4217366;28;20102;-83
2022/11/13 11:19:41;;;;;;;9.80;9.10;;;11.40;99.90;;;;;;4230557;28;20077;-83
2022/11/13 11:22:29;;;;;;;7.40;6.85;;;11.40;99.90;;;;;;4227479;28;20065;-83
2022/11/13 11:25:10;;;;;;;6.43;6.03;;;11.60;99.90;;;;;;4230418;28;20058;-83
2022/11/13 11:27:36;;;;;;;6.68;6.32;;;11.60;99.90;;;;;;4228586;28;20039;-83
2022/11/13 11:30:22;;;;;;;7.18;6.90;;;11.70;99.90;;;;;;4231222;28;20105;-87
2022/11/13 11:33:03;;;;;;;9.50;9.15;;;11.80;99.90;;;;;;4233832;28;20055;-85
2022/11/13 11:35:33;;;;;;;8.05;7.32;;;11.90;99.90;;;;;;4234285;28;20047;-86
2022/11/13 11:38:02;;;;;;;6.90;6.65;;;11.90;99.90;;;;;;4229462;28;20051;-86
2022/11/13 11:40:41;;;;;;;7.68;7.38;;;12.00;99.90;;;;;;4219895;28;20070;-84
2022/11/13 11:43:10;;;;;;;9.43;8.75;;;12.00;99.90;;;;;;4231176;28;20091;-85
2022/11/13 11:45:43;;;;;;;7.13;6.82;;;12.00;99.90;;;;;;4234172;28;20376;-85
2022/11/13 11:48:05;;;;;;;8.55;8.25;;;12.10;99.90;;;;;;4228040;28;20054;-85
2022/11/13 11:50:46;;;;;;;16.30;14.23;;;12.20;99.90;;;;;;4227827;28;20107;-85
2022/11/13 11:53:27;;;;;;;9.65;9.07;;;12.30;99.90;;;;;;4233546;28;20042;-85
2022/11/13 11:56:12;;;;;;;11.13;10.48;;;12.30;99.90;;;;;;4230650;28;20261;-85
2022/11/13 11:58:53;;;;;;;22.90;20.83;;;12.20;99.90;;;;;;4226114;28;20161;-85
2022/11/13 12:01:42;;;;;;;12.55;11.65;;;12.20;99.90;;;;;;4233580;28;20105;-85
2022/11/13 12:04:11;;;;;;;7.88;7.28;;;12.20;99.90;;;;;;4220573;28;20136;-85
2022/11/13 12:06:49;;;;;;;9.95;9.18;;;12.20;99.90;;;;;;4230418;28;20054;-85
2022/11/13 12:09:29;;;;;;;9.20;8.65;;;12.20;99.90;;;;;;4229253;28;20035;-86
2022/11/13 12:12:24;;;;;;;106.90;47.63;;;12.30;99.90;;;;;;4217535;28;20051;-85
2022/11/13 12:15:06;;;;;;;6.95;6.63;;;12.80;99.90;;;;;;4214068;28;20060;-85
2022/11/13 12:18:01;;;;;;;6.15;6.05;;;12.80;99.90;;;;;;4222714;28;20051;-85
2022/11/13 12:21:13;;;;;;;6.47;6.28;;;12.80;99.90;;;;;;4140053;28;20326;-85
2022/11/13 12:23:40;;;;;;;6.82;6.53;;;13.00;99.90;;;;;;4099602;28;20148;-85
2022/11/13 12:26:11;;;;;;;6.38;6.13;;;13.00;99.90;;;;;;4133179;28;20131;-86
2022/11/13 12:28:45;;;;;;;15.18;13.93;;;13.00;99.90;;;;;;4130761;28;20109;-86
2022/11/13 12:31:42;;;;;;;6.60;6.35;;;13.20;99.90;;;;;;4113995;28;20171;-86
2022/11/13 12:34:27;;;;;;;10.45;9.85;;;13.20;99.90;;;;;;4126170;28;20079;-86
2022/11/13 12:36:48;;;;;;;7.93;7.38;;;13.20;99.90;;;;;;4129430;28;20372;-86